Ebenezer — 9N220 — position and weather

sailwx.info

Track history (hours):
 
Tides and Currents Weather Stations Pressure Air Temp Water Temp Dewpoint Dewpoint Depression Visibility Wind Speed Wind Dir Waves Ship Positions

Ebenezer

Last reported at 2017-Sep-18 17:44 UTC. Time now 2017-Sep-25 07:46 UTC.
Position N 05°38' E 000°01'.

Length 20 m.

Type: Ship. MMSI: 752981000.

Date/timePositionNaut miles runAvg speedWind from/ knotsBaromVisibWave heightAir tempDewpointWater temp
2017-Sep-18 17:44N 05°38' E 000°01'0 0.1
2017-Sep-18 17:30N 05°38' E 000°01'3 6.5
2017-Sep-18 17:00N 05°35' E 000°02'0 0.3
2017-Sep-18 16:30N 05°35' E 000°02'0 0.1
2017-Sep-18 15:59N 05°35' E 000°02'0 0.0
2017-Sep-18 15:29N 05°35' E 000°02'0 0.0
2017-Sep-18 15:00N 05°35' E 000°02'0 0.0
2017-Sep-18 14:30N 05°35' E 000°02'1 1.9
2017-Sep-18 14:00N 05°36' E 000°02'  
2017-Sep-14 10:21N 05°38' E 000°01'0 0.0
2017-Sep-14 10:00N 05°38' E 000°01'0 0.0
2017-Sep-14 09:27N 05°38' E 000°01'0 0.0
2017-Sep-14 09:00N 05°38' E 000°01'0 0.0
2017-Sep-14 08:30N 05°38' E 000°01'0 0.0
2017-Sep-14 07:59N 05°38' E 000°01'0 0.0
2017-Sep-13 16:36N 05°38' E 000°01'0 0.0
2017-Sep-13 16:30N 05°38' E 000°01'0 0.0
2017-Sep-13 15:57N 05°38' E 000°01'0 0.0
2017-Sep-13 15:30N 05°38' E 000°01'0 0.0
2017-Sep-13 15:00N 05°38' E 000°01'0 0.0
2017-Sep-13 14:30N 05°38' E 000°01'0 0.0
2017-Sep-13 14:00N 05°38' E 000°01'0 0.0
2017-Sep-13 13:30N 05°38' E 000°01'0 0.0
2017-Sep-13 13:00N 05°38' E 000°01'0 0.0
2017-Sep-13 12:30N 05°38' E 000°01'0 0.0
2017-Sep-13 12:00N 05°38' E 000°01'0 0.0
2017-Sep-13 11:30N 05°38' E 000°01'0 0.0
2017-Sep-13 11:00N 05°38' E 000°01'0 0.0
2017-Sep-13 10:30N 05°38' E 000°01'0 0.0
2017-Sep-13 09:57N 05°38' E 000°01'0 0.0
2017-Sep-13 09:29N 05°38' E 000°01'0 0.0
2017-Sep-13 08:55N 05°38' E 000°01'0 0.0
2017-Sep-13 08:28N 05°38' E 000°01'0 0.0
2017-Sep-13 07:58N 05°38' E 000°01'2 3.5
2017-Sep-13 07:30N 05°38' E 000°03'2 3.5
2017-Sep-13 06:59N 05°39' E 000°04'0 0.1
2017-Sep-13 06:30N 05°39' E 000°04'3 5.9
2017-Sep-13 05:56N 05°38' E 000°01'0 0.0
2017-Sep-13 05:29N 05°38' E 000°01'0 0.0
2017-Sep-13 04:59N 05°38' E 000°01'0 0.0
2017-Sep-13 04:29N 05°38' E 000°01'0 0.0
2017-Sep-13 03:59N 05°38' E 000°01'0 0.0
2017-Sep-13 03:29N 05°38' E 000°01'0 0.0
2017-Sep-13 02:59N 05°38' E 000°01'0 0.0
2017-Sep-13 02:29N 05°38' E 000°01'0 0.0
2017-Sep-13 01:59N 05°38' E 000°01'0 0.0
2017-Sep-13 01:29N 05°38' E 000°01'0 0.0
2017-Sep-13 00:59N 05°38' E 000°01'0 0.0
2017-Sep-13 00:29N 05°38' E 000°01'0 0.0
2017-Sep-12 23:59N 05°38' E 000°01'0 0.0
2017-Sep-12 23:29N 05°38' E 000°01'0 0.0
2017-Sep-12 22:59N 05°38' E 000°01'0 0.0
2017-Sep-12 22:29N 05°38' E 000°01'0 0.0
2017-Sep-12 21:59N 05°38' E 000°01'0 0.0
2017-Sep-12 21:26N 05°38' E 000°01'0 0.0
2017-Sep-12 20:59N 05°38' E 000°01'0 0.0
2017-Sep-12 20:29N 05°38' E 000°01'0 0.0
2017-Sep-12 20:00N 05°38' E 000°01'0 0.0
2017-Sep-12 19:30N 05°38' E 000°01'0 0.0
2017-Sep-12 19:00N 05°38' E 000°01'0 0.0
2017-Sep-12 18:28N 05°38' E 000°01'0 0.0
2017-Sep-12 17:58N 05°38' E 000°01'0 0.0
2017-Sep-12 17:28N 05°38' E 000°01'0 0.0
2017-Sep-12 17:00N 05°38' E 000°01'0 0.0
2017-Sep-12 16:30N 05°38' E 000°01'0 0.0
2017-Sep-12 16:00N 05°38' E 000°01'0 0.0
2017-Sep-12 15:26N 05°38' E 000°01'0 0.0
2017-Sep-12 14:58N 05°38' E 000°01'0 0.0
2017-Sep-11 13:46N 05°38' E 000°01'1 3.6
2017-Sep-11 13:30N 05°38' E 000°02'3 5.0
2017-Sep-11 13:00N 05°39' E 000°04'0 0.0
2017-Sep-11 12:30N 05°39' E 000°04'0 0.0
2017-Sep-11 11:59N 05°39' E 000°04'2 4.3
2017-Sep-11 11:30N 05°38' E 000°02'  
2017-Sep-08 17:44N 05°38' E 000°01'  
Track history (hours):
 
Tides and Currents Weather Stations Pressure Air Temp Water Temp Dewpoint Dewpoint Depression Visibility Wind Speed Wind Dir Waves Ship Positions

Ebenezer

Last reported at 2017-Sep-18 17:44 UTC. Time now 2017-Sep-25 07:46 UTC.
Position N 05°38' E 000°01'.

Length 20 m.

Type: Ship. MMSI: 752981000.

Date/timePositionNaut miles runAvg speedWind from/ knotsBaromVisibWave heightAir tempDewpointWater temp
2017-Sep-18 17:44N 05°38' E 000°01'0 0.1
2017-Sep-18 17:30N 05°38' E 000°01'3 6.5
2017-Sep-18 17:00N 05°35' E 000°02'0 0.3
2017-Sep-18 16:30N 05°35' E 000°02'0 0.1
2017-Sep-18 15:59N 05°35' E 000°02'0 0.0
2017-Sep-18 15:29N 05°35' E 000°02'0 0.0
2017-Sep-18 15:00N 05°35' E 000°02'0 0.0
2017-Sep-18 14:30N 05°35' E 000°02'1 1.9
2017-Sep-18 14:00N 05°36' E 000°02'  
2017-Sep-14 10:21N 05°38' E 000°01'0 0.0
2017-Sep-14 10:00N 05°38' E 000°01'0 0.0
2017-Sep-14 09:27N 05°38' E 000°01'0 0.0
2017-Sep-14 09:00N 05°38' E 000°01'0 0.0
2017-Sep-14 08:30N 05°38' E 000°01'0 0.0
2017-Sep-14 07:59N 05°38' E 000°01'0 0.0
2017-Sep-13 16:36N 05°38' E 000°01'0 0.0
2017-Sep-13 16:30N 05°38' E 000°01'0 0.0
2017-Sep-13 15:57N 05°38' E 000°01'0 0.0
2017-Sep-13 15:30N 05°38' E 000°01'0 0.0
2017-Sep-13 15:00N 05°38' E 000°01'0 0.0
2017-Sep-13 14:30N 05°38' E 000°01'0 0.0
2017-Sep-13 14:00N 05°38' E 000°01'0 0.0
2017-Sep-13 13:30N 05°38' E 000°01'0 0.0
2017-Sep-13 13:00N 05°38' E 000°01'0 0.0
2017-Sep-13 12:30N 05°38' E 000°01'0 0.0
2017-Sep-13 12:00N 05°38' E 000°01'0 0.0
2017-Sep-13 11:30N 05°38' E 000°01'0 0.0
2017-Sep-13 11:00N 05°38' E 000°01'0 0.0
2017-Sep-13 10:30N 05°38' E 000°01'0 0.0
2017-Sep-13 09:57N 05°38' E 000°01'0 0.0
2017-Sep-13 09:29N 05°38' E 000°01'0 0.0
2017-Sep-13 08:55N 05°38' E 000°01'0 0.0
2017-Sep-13 08:28N 05°38' E 000°01'0 0.0
2017-Sep-13 07:58N 05°38' E 000°01'2 3.5
2017-Sep-13 07:30N 05°38' E 000°03'2 3.5
2017-Sep-13 06:59N 05°39' E 000°04'0 0.1
2017-Sep-13 06:30N 05°39' E 000°04'3 5.9
2017-Sep-13 05:56N 05°38' E 000°01'0 0.0
2017-Sep-13 05:29N 05°38' E 000°01'0 0.0
2017-Sep-13 04:59N 05°38' E 000°01'0 0.0
2017-Sep-13 04:29N 05°38' E 000°01'0 0.0
2017-Sep-13 03:59N 05°38' E 000°01'0 0.0
2017-Sep-13 03:29N 05°38' E 000°01'0 0.0
2017-Sep-13 02:59N 05°38' E 000°01'0 0.0
2017-Sep-13 02:29N 05°38' E 000°01'0 0.0
2017-Sep-13 01:59N 05°38' E 000°01'0 0.0
2017-Sep-13 01:29N 05°38' E 000°01'0 0.0
2017-Sep-13 00:59N 05°38' E 000°01'0 0.0
2017-Sep-13 00:29N 05°38' E 000°01'0 0.0
2017-Sep-12 23:59N 05°38' E 000°01'0 0.0
2017-Sep-12 23:29N 05°38' E 000°01'0 0.0
2017-Sep-12 22:59N 05°38' E 000°01'0 0.0
2017-Sep-12 22:29N 05°38' E 000°01'0 0.0
2017-Sep-12 21:59N 05°38' E 000°01'0 0.0
2017-Sep-12 21:26N 05°38' E 000°01'0 0.0
2017-Sep-12 20:59N 05°38' E 000°01'0 0.0
2017-Sep-12 20:29N 05°38' E 000°01'0 0.0
2017-Sep-12 20:00N 05°38' E 000°01'0 0.0
2017-Sep-12 19:30N 05°38' E 000°01'0 0.0
2017-Sep-12 19:00N 05°38' E 000°01'0 0.0
2017-Sep-12 18:28N 05°38' E 000°01'0 0.0
2017-Sep-12 17:58N 05°38' E 000°01'0 0.0
2017-Sep-12 17:28N 05°38' E 000°01'0 0.0
2017-Sep-12 17:00N 05°38' E 000°01'0 0.0
2017-Sep-12 16:30N 05°38' E 000°01'0 0.0
2017-Sep-12 16:00N 05°38' E 000°01'0 0.0
2017-Sep-12 15:26N 05°38' E 000°01'0 0.0
2017-Sep-12 14:58N 05°38' E 000°01'0 0.0
2017-Sep-11 13:46N 05°38' E 000°01'1 3.6
2017-Sep-11 13:30N 05°38' E 000°02'3 5.0
2017-Sep-11 13:00N 05°39' E 000°04'0 0.0
2017-Sep-11 12:30N 05°39' E 000°04'0 0.0
2017-Sep-11 11:59N 05°39' E 000°04'2 4.3
2017-Sep-11 11:30N 05°38' E 000°02'  
2017-Sep-08 17:44N 05°38' E 000°01'  

Dump ship's entire track history